Etusivu
METAR-TAF:

METAR-TAF

Lentoasemat :

Raton Municipal Airport (Crews Field)

Raton, New Mexico, Yhdysvallat

Leveyspiiri: 36-44-31N, Pituuspiiri: 104-39-28W, korkeus merenpinnasta: 1935 m

Tämänhetkinen sää

Tämä raportti tehtiin 36 minuuttia sitten, kello 12.53 UTC
Tuuli 3 kn pohjoisen/luoteesta
Lämpötila 14°C
Kosteus 82%
Ilmanpaine 1028 hPa
Näkyvyys: 16.1 km
Muutamia pilviä 10000 ft:n korkeudessa
Hajanaisia pilviä 12000 ft:n korkeudessa

METAR: KRTN 211253Z AUTO 33003KT 10SM FEW100 SCT120 14/11 A3036 RMK AO2 RAE17 SLP208 P0000 T01390106

Aika: 07:29 (13:29 UTC)


TAF: puuttuu

Säähavainnot ja -ennusteet yli 4000 lentoasemalta (METAR- ja TAF-raportit).

Käytössä olevat sääasemat on merkitty karttaan keltaisilla ja punaisilla pisteillä.

Aseta hiiri pisteen päälle nähdäksesi sääaseman nimen.

Klikkaa sitten nähdäksesi säähavainnot ja -ennusteet.

Kartan vaihtaminen: klikkaa mustalla rastilla varustettuja vihreitä pisteitä, niin voit zoomata sisään; viivalla varustettua vihreää pistettä, niin voit zoomata ulos tai vihreitä nuolia, niin pääset viereisille kartoille.


METAR-TAF: